sensor_id;sensor_type;location;lat;lon;timestamp;P1;durP1;ratioP1;P2;durP2;ratioP2
34892;SDS011;21106;52.240;20.902;2023-08-31T00:03:04;5.00;;;4.10;;
34892;SDS011;21106;52.240;20.902;2023-08-31T00:08:11;5.90;;;4.30;;
34892;SDS011;21106;52.240;20.902;2023-08-31T00:13:19;4.20;;;3.70;;
34892;SDS011;21106;52.240;20.902;2023-08-31T00:18:26;5.80;;;3.60;;
34892;SDS011;21106;52.240;20.902;2023-08-31T00:23:32;5.00;;;3.40;;
34892;SDS011;21106;52.240;20.902;2023-08-31T00:28:39;7.40;;;4.00;;
34892;SDS011;21106;52.240;20.902;2023-08-31T00:33:47;4.30;;;3.80;;
34892;SDS011;21106;52.240;20.902;2023-08-31T00:38:54;5.60;;;3.60;;
34892;SDS011;21106;52.240;20.902;2023-08-31T00:44:00;4.60;;;3.40;;
34892;SDS011;21106;52.240;20.902;2023-08-31T00:49:07;4.10;;;3.70;;
34892;SDS011;21106;52.240;20.902;2023-08-31T00:54:16;4.60;;;3.70;;
34892;SDS011;21106;52.240;20.902;2023-08-31T00:59:22;6.20;;;3.20;;
34892;SDS011;21106;52.240;20.902;2023-08-31T01:09:57;5.80;;;3.70;;
34892;SDS011;21106;52.240;20.902;2023-08-31T01:15:13;4.70;;;4.10;;
34892;SDS011;21106;52.240;20.902;2023-08-31T01:20:26;5.00;;;3.30;;
34892;SDS011;21106;52.240;20.902;2023-08-31T01:25:36;5.10;;;3.30;;
34892;SDS011;21106;52.240;20.902;2023-08-31T01:30:42;7.20;;;3.00;;
34892;SDS011;21106;52.240;20.902;2023-08-31T01:35:49;5.40;;;2.90;;
34892;SDS011;21106;52.240;20.902;2023-08-31T01:41:05;7.10;;;3.10;;
34892;SDS011;21106;52.240;20.902;2023-08-31T01:46:12;3.90;;;2.80;;
34892;SDS011;21106;52.240;20.902;2023-08-31T01:51:19;4.50;;;2.80;;
34892;SDS011;21106;52.240;20.902;2023-08-31T01:56:25;5.30;;;2.90;;
34892;SDS011;21106;52.240;20.902;2023-08-31T02:01:32;5.70;;;2.80;;
34892;SDS011;21106;52.240;20.902;2023-08-31T02:06:38;6.70;;;2.90;;
34892;SDS011;21106;52.240;20.902;2023-08-31T02:11:47;4.60;;;2.90;;
34892;SDS011;21106;52.240;20.902;2023-08-31T02:16:53;3.60;;;3.10;;
34892;SDS011;21106;52.240;20.902;2023-08-31T02:22:00;4.50;;;2.80;;
34892;SDS011;21106;52.240;20.902;2023-08-31T02:27:07;3.30;;;3.00;;
34892;SDS011;21106;52.240;20.902;2023-08-31T02:32:13;3.70;;;3.10;;
34892;SDS011;21106;52.240;20.902;2023-08-31T02:37:19;12.90;;;3.40;;
34892;SDS011;21106;52.240;20.902;2023-08-31T02:42:26;8.40;;;3.30;;
34892;SDS011;21106;52.240;20.902;2023-08-31T02:47:32;5.10;;;2.70;;
34892;SDS011;21106;52.240;20.902;2023-08-31T02:52:39;4.60;;;2.50;;
34892;SDS011;21106;52.240;20.902;2023-08-31T02:57:45;4.40;;;3.10;;
34892;SDS011;21106;52.240;20.902;2023-08-31T03:02:52;4.60;;;2.60;;
34892;SDS011;21106;52.240;20.902;2023-08-31T03:07:58;4.60;;;2.70;;
34892;SDS011;21106;52.240;20.902;2023-08-31T03:13:05;2.70;;;2.50;;
34892;SDS011;21106;52.240;20.902;2023-08-31T03:18:12;3.60;;;2.70;;
34892;SDS011;21106;52.240;20.902;2023-08-31T03:23:18;3.00;;;2.50;;
34892;SDS011;21106;52.240;20.902;2023-08-31T03:28:25;4.40;;;2.50;;
34892;SDS011;21106;52.240;20.902;2023-08-31T03:33:32;4.20;;;2.70;;
34892;SDS011;21106;52.240;20.902;2023-08-31T03:38:38;5.10;;;2.60;;
34892;SDS011;21106;52.240;20.902;2023-08-31T03:43:44;4.90;;;2.30;;
34892;SDS011;21106;52.240;20.902;2023-08-31T03:48:51;3.50;;;2.30;;
34892;SDS011;21106;52.240;20.902;2023-08-31T03:53:59;6.70;;;2.30;;
34892;SDS011;21106;52.240;20.902;2023-08-31T03:59:06;5.10;;;2.30;;
34892;SDS011;21106;52.240;20.902;2023-08-31T04:04:12;5.20;;;2.20;;
34892;SDS011;21106;52.240;20.902;2023-08-31T04:09:18;3.60;;;2.50;;
34892;SDS011;21106;52.240;20.902;2023-08-31T04:14:28;3.70;;;2.20;;
34892;SDS011;21106;52.240;20.902;2023-08-31T04:19:34;3.00;;;2.20;;
34892;SDS011;21106;52.240;20.902;2023-08-31T04:24:40;5.00;;;2.50;;
34892;SDS011;21106;52.240;20.902;2023-08-31T04:29:47;3.80;;;2.00;;
34892;SDS011;21106;52.240;20.902;2023-08-31T04:34:54;4.60;;;2.50;;
34892;SDS011;21106;52.240;20.902;2023-08-31T04:40:00;3.20;;;2.10;;
34892;SDS011;21106;52.240;20.902;2023-08-31T04:45:07;3.60;;;2.40;;
34892;SDS011;21106;52.240;20.902;2023-08-31T04:50:13;4.60;;;2.60;;
34892;SDS011;21106;52.240;20.902;2023-08-31T04:55:21;4.30;;;2.40;;
34892;SDS011;21106;52.240;20.902;2023-08-31T05:00:27;6.60;;;2.30;;
34892;SDS011;21106;52.240;20.902;2023-08-31T05:05:32;2.70;;;1.90;;
34892;SDS011;21106;52.240;20.902;2023-08-31T05:10:38;3.40;;;1.70;;
34892;SDS011;21106;52.240;20.902;2023-08-31T05:15:45;5.10;;;1.30;;
34892;SDS011;21106;52.240;20.902;2023-08-31T05:20:51;4.60;;;1.40;;
34892;SDS011;21106;52.240;20.902;2023-08-31T05:25:58;5.60;;;1.20;;
34892;SDS011;21106;52.240;20.902;2023-08-31T05:31:04;1.70;;;0.90;;
34892;SDS011;21106;52.240;20.902;2023-08-31T05:36:11;2.90;;;1.20;;
34892;SDS011;21106;52.240;20.902;2023-08-31T05:41:17;2.20;;;1.10;;
34892;SDS011;21106;52.240;20.902;2023-08-31T05:46:24;2.70;;;1.00;;
34892;SDS011;21106;52.240;20.902;2023-08-31T05:51:30;2.80;;;0.90;;
34892;SDS011;21106;52.240;20.902;2023-08-31T05:56:37;3.90;;;0.90;;
34892;SDS011;21106;52.240;20.902;2023-08-31T06:01:45;2.30;;;1.00;;
34892;SDS011;21106;52.240;20.902;2023-08-31T06:06:51;1.20;;;0.80;;
34892;SDS011;21106;52.240;20.902;2023-08-31T06:12:00;20.50;;;5.00;;
34892;SDS011;21106;52.240;20.902;2023-08-31T06:17:06;13.80;;;4.10;;
34892;SDS011;21106;52.240;20.902;2023-08-31T06:22:16;6.40;;;1.90;;
34892;SDS011;21106;52.240;20.902;2023-08-31T06:27:24;3.70;;;1.30;;
34892;SDS011;21106;52.240;20.902;2023-08-31T06:32:31;4.00;;;1.40;;
34892;SDS011;21106;52.240;20.902;2023-08-31T06:37:38;9.70;;;1.70;;
34892;SDS011;21106;52.240;20.902;2023-08-31T06:42:44;3.50;;;1.10;;
34892;SDS011;21106;52.240;20.902;2023-08-31T06:47:50;3.80;;;1.10;;
34892;SDS011;21106;52.240;20.902;2023-08-31T06:52:57;8.00;;;1.70;;
34892;SDS011;21106;52.240;20.902;2023-08-31T06:58:24;6.00;;;1.40;;
34892;SDS011;21106;52.240;20.902;2023-08-31T07:03:51;5.90;;;2.00;;
34892;SDS011;21106;52.240;20.902;2023-08-31T07:08:57;3.20;;;1.40;;
34892;SDS011;21106;52.240;20.902;2023-08-31T07:14:06;4.00;;;1.50;;
34892;SDS011;21106;52.240;20.902;2023-08-31T07:19:16;3.80;;;1.60;;
34892;SDS011;21106;52.240;20.902;2023-08-31T07:24:22;4.80;;;1.30;;
34892;SDS011;21106;52.240;20.902;2023-08-31T07:29:29;2.60;;;1.20;;
34892;SDS011;21106;52.240;20.902;2023-08-31T07:34:35;4.20;;;1.40;;
34892;SDS011;21106;52.240;20.902;2023-08-31T07:39:51;3.30;;;1.70;;
34892;SDS011;21106;52.240;20.902;2023-08-31T07:45:18;2.20;;;1.00;;
34892;SDS011;21106;52.240;20.902;2023-08-31T07:50:24;3.70;;;2.20;;
34892;SDS011;21106;52.240;20.902;2023-08-31T07:55:30;1.30;;;0.90;;
34892;SDS011;21106;52.240;20.902;2023-08-31T08:00:37;3.30;;;1.00;;
34892;SDS011;21106;52.240;20.902;2023-08-31T08:05:43;3.40;;;0.70;;
34892;SDS011;21106;52.240;20.902;2023-08-31T08:11:11;2.10;;;0.90;;
34892;SDS011;21106;52.240;20.902;2023-08-31T08:16:37;2.80;;;0.80;;
34892;SDS011;21106;52.240;20.902;2023-08-31T08:22:04;3.00;;;0.90;;
34892;SDS011;21106;52.240;20.902;2023-08-31T08:27:34;2.60;;;1.10;;
34892;SDS011;21106;52.240;20.902;2023-08-31T08:33:03;2.90;;;1.00;;
34892;SDS011;21106;52.240;20.902;2023-08-31T08:38:30;3.50;;;1.70;;
34892;SDS011;21106;52.240;20.902;2023-08-31T08:43:57;2.90;;;0.80;;
34892;SDS011;21106;52.240;20.902;2023-08-31T08:49:28;2.20;;;1.00;;
34892;SDS011;21106;52.240;20.902;2023-08-31T08:54:57;2.40;;;1.40;;
34892;SDS011;21106;52.240;20.902;2023-08-31T09:00:24;5.60;;;1.50;;
34892;SDS011;21106;52.240;20.902;2023-08-31T09:05:51;7.80;;;1.90;;
34892;SDS011;21106;52.240;20.902;2023-08-31T09:11:22;7.00;;;2.00;;
34892;SDS011;21106;52.240;20.902;2023-08-31T09:16:50;6.50;;;1.50;;
34892;SDS011;21106;52.240;20.902;2023-08-31T09:22:17;2.40;;;1.20;;
34892;SDS011;21106;52.240;20.902;2023-08-31T09:27:49;4.50;;;1.40;;
34892;SDS011;21106;52.240;20.902;2023-08-31T09:33:16;3.70;;;1.20;;
34892;SDS011;21106;52.240;20.902;2023-08-31T09:38:44;4.60;;;1.50;;
34892;SDS011;21106;52.240;20.902;2023-08-31T09:44:17;2.40;;;1.00;;
34892;SDS011;21106;52.240;20.902;2023-08-31T09:49:44;4.50;;;1.20;;
34892;SDS011;21106;52.240;20.902;2023-08-31T09:55:14;2.30;;;0.90;;
34892;SDS011;21106;52.240;20.902;2023-08-31T10:00:42;6.20;;;0.90;;
34892;SDS011;21106;52.240;20.902;2023-08-31T10:06:09;2.80;;;1.50;;
34892;SDS011;21106;52.240;20.902;2023-08-31T10:11:37;4.00;;;1.20;;
34892;SDS011;21106;52.240;20.902;2023-08-31T10:17:04;3.60;;;1.20;;
34892;SDS011;21106;52.240;20.902;2023-08-31T10:22:32;4.60;;;1.50;;
34892;SDS011;21106;52.240;20.902;2023-08-31T10:27:59;4.10;;;1.30;;
34892;SDS011;21106;52.240;20.902;2023-08-31T10:33:26;3.20;;;1.10;;
34892;SDS011;21106;52.240;20.902;2023-08-31T10:44:27;3.00;;;1.10;;
34892;SDS011;21106;52.240;20.902;2023-08-31T10:49:54;4.40;;;1.40;;
34892;SDS011;21106;52.240;20.902;2023-08-31T10:55:25;2.30;;;1.40;;
34892;SDS011;21106;52.240;20.902;2023-08-31T11:00:53;2.50;;;1.30;;
34892;SDS011;21106;52.240;20.902;2023-08-31T11:06:19;2.50;;;1.40;;
34892;SDS011;21106;52.240;20.902;2023-08-31T11:11:47;1.90;;;1.40;;
34892;SDS011;21106;52.240;20.902;2023-08-31T11:17:15;5.80;;;1.60;;
34892;SDS011;21106;52.240;20.902;2023-08-31T11:22:44;6.70;;;2.40;;
34892;SDS011;21106;52.240;20.902;2023-08-31T11:28:10;6.00;;;1.90;;
34892;SDS011;21106;52.240;20.902;2023-08-31T11:33:37;11.20;;;3.20;;
34892;SDS011;21106;52.240;20.902;2023-08-31T11:39:04;5.20;;;1.80;;
34892;SDS011;21106;52.240;20.902;2023-08-31T11:44:31;4.70;;;2.60;;
34892;SDS011;21106;52.240;20.902;2023-08-31T11:49:58;7.70;;;1.80;;
34892;SDS011;21106;52.240;20.902;2023-08-31T11:55:25;3.60;;;1.70;;
34892;SDS011;21106;52.240;20.902;2023-08-31T12:00:56;4.30;;;1.90;;
34892;SDS011;21106;52.240;20.902;2023-08-31T12:06:23;3.70;;;1.90;;
34892;SDS011;21106;52.240;20.902;2023-08-31T12:11:49;7.00;;;1.80;;
34892;SDS011;21106;52.240;20.902;2023-08-31T12:17:18;4.10;;;1.70;;
34892;SDS011;21106;52.240;20.902;2023-08-31T12:22:45;7.10;;;1.80;;
34892;SDS011;21106;52.240;20.902;2023-08-31T12:28:11;11.20;;;7.60;;
34892;SDS011;21106;52.240;20.902;2023-08-31T12:33:38;6.70;;;2.70;;
34892;SDS011;21106;52.240;20.902;2023-08-31T12:39:05;4.80;;;2.00;;
34892;SDS011;21106;52.240;20.902;2023-08-31T12:44:34;2.80;;;2.00;;
34892;SDS011;21106;52.240;20.902;2023-08-31T12:50:00;8.80;;;2.30;;
34892;SDS011;21106;52.240;20.902;2023-08-31T12:55:29;6.40;;;2.70;;
34892;SDS011;21106;52.240;20.902;2023-08-31T13:00:59;3.40;;;2.10;;
34892;SDS011;21106;52.240;20.902;2023-08-31T13:06:27;3.90;;;2.20;;
34892;SDS011;21106;52.240;20.902;2023-08-31T13:11:53;4.90;;;2.50;;
34892;SDS011;21106;52.240;20.902;2023-08-31T13:17:20;4.20;;;2.10;;
34892;SDS011;21106;52.240;20.902;2023-08-31T13:22:47;5.30;;;2.00;;
34892;SDS011;21106;52.240;20.902;2023-08-31T13:28:14;3.70;;;1.60;;
34892;SDS011;21106;52.240;20.902;2023-08-31T13:33:41;4.60;;;2.00;;
34892;SDS011;21106;52.240;20.902;2023-08-31T13:39:09;3.80;;;2.00;;
34892;SDS011;21106;52.240;20.902;2023-08-31T13:44:36;4.30;;;2.00;;
34892;SDS011;21106;52.240;20.902;2023-08-31T13:50:02;11.20;;;2.80;;
34892;SDS011;21106;52.240;20.902;2023-08-31T13:55:30;10.10;;;3.00;;
34892;SDS011;21106;52.240;20.902;2023-08-31T14:01:00;7.40;;;2.50;;
34892;SDS011;21106;52.240;20.902;2023-08-31T14:06:27;3.40;;;2.40;;
34892;SDS011;21106;52.240;20.902;2023-08-31T14:11:53;5.40;;;2.40;;
34892;SDS011;21106;52.240;20.902;2023-08-31T14:17:23;3.60;;;1.90;;
34892;SDS011;21106;52.240;20.902;2023-08-31T14:22:50;3.80;;;2.20;;
34892;SDS011;21106;52.240;20.902;2023-08-31T14:28:17;8.30;;;3.10;;
34892;SDS011;21106;52.240;20.902;2023-08-31T14:33:43;4.20;;;2.60;;
34892;SDS011;21106;52.240;20.902;2023-08-31T14:39:10;5.00;;;3.00;;
34892;SDS011;21106;52.240;20.902;2023-08-31T14:44:37;4.20;;;2.50;;
34892;SDS011;21106;52.240;20.902;2023-08-31T14:50:04;10.70;;;3.50;;
34892;SDS011;21106;52.240;20.902;2023-08-31T14:55:31;4.30;;;3.10;;
34892;SDS011;21106;52.240;20.902;2023-08-31T15:00:58;4.00;;;3.10;;
34892;SDS011;21106;52.240;20.902;2023-08-31T15:06:24;6.40;;;3.60;;
34892;SDS011;21106;52.240;20.902;2023-08-31T15:11:51;7.30;;;3.00;;
34892;SDS011;21106;52.240;20.902;2023-08-31T15:17:18;4.30;;;3.20;;
34892;SDS011;21106;52.240;20.902;2023-08-31T15:22:45;5.10;;;3.50;;
34892;SDS011;21106;52.240;20.902;2023-08-31T15:28:12;5.50;;;4.10;;
34892;SDS011;21106;52.240;20.902;2023-08-31T15:33:39;5.20;;;3.50;;
34892;SDS011;21106;52.240;20.902;2023-08-31T15:39:06;6.70;;;4.20;;
34892;SDS011;21106;52.240;20.902;2023-08-31T15:44:37;5.40;;;4.20;;
34892;SDS011;21106;52.240;20.902;2023-08-31T15:50:06;7.10;;;4.10;;
34892;SDS011;21106;52.240;20.902;2023-08-31T15:55:34;4.70;;;4.20;;
34892;SDS011;21106;52.240;20.902;2023-08-31T16:01:01;6.70;;;4.20;;
34892;SDS011;21106;52.240;20.902;2023-08-31T16:06:28;5.80;;;4.10;;
34892;SDS011;21106;52.240;20.902;2023-08-31T16:11:56;7.10;;;4.10;;
34892;SDS011;21106;52.240;20.902;2023-08-31T16:17:23;5.30;;;3.90;;
34892;SDS011;21106;52.240;20.902;2023-08-31T16:22:50;6.60;;;4.10;;
34892;SDS011;21106;52.240;20.902;2023-08-31T16:28:17;5.50;;;4.40;;
34892;SDS011;21106;52.240;20.902;2023-08-31T16:33:43;5.40;;;3.50;;
34892;SDS011;21106;52.240;20.902;2023-08-31T16:39:10;10.70;;;3.40;;
34892;SDS011;21106;52.240;20.902;2023-08-31T16:44:37;5.10;;;2.60;;
34892;SDS011;21106;52.240;20.902;2023-08-31T16:50:04;4.60;;;2.10;;
34892;SDS011;21106;52.240;20.902;2023-08-31T16:55:32;2.60;;;1.60;;
34892;SDS011;21106;52.240;20.902;2023-08-31T17:00:59;4.00;;;1.80;;
34892;SDS011;21106;52.240;20.902;2023-08-31T17:06:27;9.30;;;2.10;;
34892;SDS011;21106;52.240;20.902;2023-08-31T17:11:55;3.90;;;1.70;;
34892;SDS011;21106;52.240;20.902;2023-08-31T17:17:25;3.70;;;2.00;;
34892;SDS011;21106;52.240;20.902;2023-08-31T17:22:54;4.90;;;1.70;;
34892;SDS011;21106;52.240;20.902;2023-08-31T17:28:21;2.70;;;1.80;;
34892;SDS011;21106;52.240;20.902;2023-08-31T17:33:49;4.10;;;2.00;;
34892;SDS011;21106;52.240;20.902;2023-08-31T17:39:16;4.60;;;1.80;;
34892;SDS011;21106;52.240;20.902;2023-08-31T17:44:43;3.80;;;1.90;;
34892;SDS011;21106;52.240;20.902;2023-08-31T17:50:11;3.70;;;2.40;;
34892;SDS011;21106;52.240;20.902;2023-08-31T17:55:38;2.40;;;1.70;;
34892;SDS011;21106;52.240;20.902;2023-08-31T18:01:05;2.60;;;1.70;;
34892;SDS011;21106;52.240;20.902;2023-08-31T18:06:32;3.00;;;1.60;;
34892;SDS011;21106;52.240;20.902;2023-08-31T18:11:59;5.00;;;2.10;;
34892;SDS011;21106;52.240;20.902;2023-08-31T18:17:26;7.80;;;2.50;;
34892;SDS011;21106;52.240;20.902;2023-08-31T18:22:53;5.30;;;1.70;;
34892;SDS011;21106;52.240;20.902;2023-08-31T18:28:20;3.50;;;1.60;;
34892;SDS011;21106;52.240;20.902;2023-08-31T18:33:46;2.30;;;1.90;;
34892;SDS011;21106;52.240;20.902;2023-08-31T18:39:13;3.70;;;2.20;;
34892;SDS011;21106;52.240;20.902;2023-08-31T18:44:40;9.30;;;1.90;;
34892;SDS011;21106;52.240;20.902;2023-08-31T18:50:07;4.20;;;2.20;;
34892;SDS011;21106;52.240;20.902;2023-08-31T18:55:34;9.90;;;2.00;;
34892;SDS011;21106;52.240;20.902;2023-08-31T19:01:01;3.20;;;2.40;;
34892;SDS011;21106;52.240;20.902;2023-08-31T19:06:28;3.30;;;2.20;;
34892;SDS011;21106;52.240;20.902;2023-08-31T19:11:55;6.70;;;2.70;;
34892;SDS011;21106;52.240;20.902;2023-08-31T19:17:22;5.30;;;2.60;;
34892;SDS011;21106;52.240;20.902;2023-08-31T19:22:49;3.00;;;2.10;;
34892;SDS011;21106;52.240;20.902;2023-08-31T19:28:16;4.10;;;2.90;;
34892;SDS011;21106;52.240;20.902;2023-08-31T19:33:43;4.90;;;2.40;;
34892;SDS011;21106;52.240;20.902;2023-08-31T19:39:11;13.70;;;6.00;;
34892;SDS011;21106;52.240;20.902;2023-08-31T19:44:38;10.90;;;4.50;;
34892;SDS011;21106;52.240;20.902;2023-08-31T19:50:06;8.70;;;3.80;;
34892;SDS011;21106;52.240;20.902;2023-08-31T19:55:36;8.50;;;3.20;;
34892;SDS011;21106;52.240;20.902;2023-08-31T20:01:19;4.70;;;2.80;;
34892;SDS011;21106;52.240;20.902;2023-08-31T20:06:47;4.60;;;3.00;;
34892;SDS011;21106;52.240;20.902;2023-08-31T20:12:14;5.10;;;3.30;;
34892;SDS011;21106;52.240;20.902;2023-08-31T20:17:40;5.80;;;3.50;;
34892;SDS011;21106;52.240;20.902;2023-08-31T20:23:10;8.30;;;3.40;;
34892;SDS011;21106;52.240;20.902;2023-08-31T20:28:40;5.40;;;3.10;;
34892;SDS011;21106;52.240;20.902;2023-08-31T20:34:07;4.30;;;2.60;;
34892;SDS011;21106;52.240;20.902;2023-08-31T20:39:34;9.70;;;3.40;;
34892;SDS011;21106;52.240;20.902;2023-08-31T20:45:05;5.20;;;2.80;;
34892;SDS011;21106;52.240;20.902;2023-08-31T20:50:32;6.20;;;3.30;;
34892;SDS011;21106;52.240;20.902;2023-08-31T20:56:08;9.50;;;2.80;;
34892;SDS011;21106;52.240;20.902;2023-08-31T21:01:35;4.70;;;3.40;;
34892;SDS011;21106;52.240;20.902;2023-08-31T21:07:02;7.70;;;2.90;;
34892;SDS011;21106;52.240;20.902;2023-08-31T21:12:29;4.80;;;3.00;;
34892;SDS011;21106;52.240;20.902;2023-08-31T21:17:56;6.50;;;3.00;;
34892;SDS011;21106;52.240;20.902;2023-08-31T21:23:23;6.10;;;3.50;;
34892;SDS011;21106;52.240;20.902;2023-08-31T21:28:49;4.60;;;3.20;;
34892;SDS011;21106;52.240;20.902;2023-08-31T21:34:17;4.30;;;2.90;;
34892;SDS011;21106;52.240;20.902;2023-08-31T21:39:44;8.10;;;4.20;;
34892;SDS011;21106;52.240;20.902;2023-08-31T21:45:12;9.00;;;3.40;;
34892;SDS011;21106;52.240;20.902;2023-08-31T21:50:39;4.20;;;3.20;;
34892;SDS011;21106;52.240;20.902;2023-08-31T21:56:06;3.40;;;2.90;;
34892;SDS011;21106;52.240;20.902;2023-08-31T22:01:33;3.90;;;2.60;;
34892;SDS011;21106;52.240;20.902;2023-08-31T22:07:00;5.60;;;2.90;;
34892;SDS011;21106;52.240;20.902;2023-08-31T22:12:28;9.00;;;3.00;;
34892;SDS011;21106;52.240;20.902;2023-08-31T22:17:56;4.50;;;2.80;;
34892;SDS011;21106;52.240;20.902;2023-08-31T22:23:22;3.80;;;2.50;;
34892;SDS011;21106;52.240;20.902;2023-08-31T22:28:50;4.00;;;2.40;;
34892;SDS011;21106;52.240;20.902;2023-08-31T22:34:17;7.50;;;2.70;;
34892;SDS011;21106;52.240;20.902;2023-08-31T22:39:43;9.70;;;3.10;;
34892;SDS011;21106;52.240;20.902;2023-08-31T22:45:10;4.90;;;2.60;;
34892;SDS011;21106;52.240;20.902;2023-08-31T22:50:37;5.30;;;2.40;;
34892;SDS011;21106;52.240;20.902;2023-08-31T22:56:04;4.60;;;2.50;;
34892;SDS011;21106;52.240;20.902;2023-08-31T23:01:31;4.10;;;2.60;;
34892;SDS011;21106;52.240;20.902;2023-08-31T23:06:58;3.90;;;2.70;;
34892;SDS011;21106;52.240;20.902;2023-08-31T23:12:25;6.50;;;2.50;;
34892;SDS011;21106;52.240;20.902;2023-08-31T23:17:54;3.60;;;2.30;;
34892;SDS011;21106;52.240;20.902;2023-08-31T23:23:21;3.50;;;2.30;;
34892;SDS011;21106;52.240;20.902;2023-08-31T23:28:48;8.30;;;2.80;;
34892;SDS011;21106;52.240;20.902;2023-08-31T23:34:14;3.70;;;2.20;;
34892;SDS011;21106;52.240;20.902;2023-08-31T23:39:41;2.90;;;2.00;;
34892;SDS011;21106;52.240;20.902;2023-08-31T23:45:08;2.30;;;1.60;;
34892;SDS011;21106;52.240;20.902;2023-08-31T23:50:35;3.50;;;1.90;;
34892;SDS011;21106;52.240;20.902;2023-08-31T23:56:05;2.70;;;1.80;;
